新千歳空港の過去48時間の天気

新千歳空港 (Sapporo/New Chitose)

現在時刻: 4/26 20:27 JST (4/26 11:27 UTC) 以下の時間は現地時間です。

過去48時間のMETAR気象情報
時間 風向 風速(m/s) 視程 気温(℃) 湿度(%) 気圧(hPa) 天気現象
26 20:00 東南東 2 10km以上 9 66 1003
26 19:30 南南東 2 10km以上 9 62 1003
26 19:00 東南東 2 10km以上 10 62 1002
26 18:30 不定 1 10km以上 12 50 1002
26 18:00 北北東 2 10km以上 13 47 1002
26 17:30 2 10km以上 14 44 1002
26 17:00 北北東 3 10km以上 14 44 1002
26 16:30 5 10km以上 14 44 1002
26 16:00 6 10km以上 15 45 1002
26 15:30 7 10km以上 15 41 1002
26 15:00 7 10km以上 16 42 1002
26 14:30 7 10km以上 17 36 1002
26 14:00 8 10km以上 17 45 1002
26 13:30 8 10km以上 15 51 1002
26 13:00 7 10km以上 14 51 1002
26 12:30 8 10km以上 14 51 1002
26 12:00 7 10km以上 13 54 1002
26 11:30 北北西 8 10km以上 12 54 1002 弱いしゅう雨
26 11:00 北北西 9 10km以上 13 47 1002
26 10:30 北北西 5 10km以上 12 58 1002
26 10:00 北北西 4 10km以上 11 67 1002
26 09:30 北北西 4 10km以上 11 67 1002
26 09:00 4 10km以上 11 67 1002
26 08:30 北北西 4 10km以上 10 71 1002
26 08:00 3 10km以上 9 76 1002
26 07:30 北北西 3 10km以上 9 76 1001
26 07:00 4 10km以上 9 76 1001 弱いしゅう雨
26 06:30 4 10km以上 8 81 1001
26 06:00 4 10km以上 8 81 1001
26 05:30 5 10km以上 8 76 1001
26 05:00 5 10km以上 7 81 1001
26 04:30 5 10km以上 7 81 1001
26 04:00 5 10km以上 8 81 1001
26 03:30 5 10km以上 7 87 1001
26 03:00 5 10km以上 7 87 1001
26 02:30 4 10km以上 7 87 1001 弱いしゅう雨
26 02:00 北北西 4 10km以上 8 81 1001 弱いしゅう雨
26 01:30 北北西 4 10km以上 8 81 1001
26 01:00 北北西 5 10km以上 8 87 1001
26 00:30 4 10km以上 8 87 1002 弱いしゅう雨
26 00:00 北北西 5 10km以上 8 87 1002 弱いしゅう雨
25 23:30 北北西 4 10km以上 8 87 1002 弱いしゅう雨
25 23:00 北北西 5 10km以上 8 87 1003 弱いしゅう雨
25 22:30 北北西 6 10km以上 8 81 1003 弱いしゅう雨
25 22:00 北北西 6 10km以上 9 81 1003 弱いしゅう雨
25 21:30 北北西 5 10km以上 8 87 1004 弱いしゅう雨
25 21:00 北北西 6 10km以上 8 87 1004 弱いしゅう雨
25 20:30 北北西 6 10km以上 8 87 1004 弱いしゅう雨
25 20:00 北北西 5 10km以上 9 87 1004 弱いしゅう雨
25 19:30 北北西 4 10km以上 9 87 1005 弱いしゅう雨
25 19:00 4 10km以上 8 93 1005 弱いしゅう雨
25 18:30 3 10km以上 8 87 1005 弱いしゅう雨
25 18:00 4 10km以上 9 87 1005 弱いしゅう雨
25 17:30 5 10km以上 9 87 1005 弱いしゅう雨
25 17:00 4 10km以上 9 93 1005 弱いしゅう雨
25 16:30 2 10km以上 9 93 1006 弱いしゅう雨
25 16:00 4 10km以上 9 87 1006 しゅう雨
25 15:30 5 10km以上 9 87 1006 弱いしゅう雨
25 15:00 5 10km以上 9 87 1006 弱いしゅう雨
25 14:30 北北東 5 8,000m 9 87 1007 弱いしゅう雨
25 14:00 5 8,000m 10 82 1007 弱いしゅう雨
25 13:30 5 8,000m 10 82 1008 弱いしゅう雨
25 13:00 5 8,000m 10 76 1008 弱いしゅう雨
25 12:30 北北西 4 10km以上 10 76 1009 弱いしゅう雨
25 12:00 北北西 4 10km以上 11 62 1009 弱いしゅう雨
25 11:30 北北西 4 10km以上 12 54 1009
25 11:00 3 10km以上 12 58 1009
25 10:30 3 10km以上 11 62 1010
25 10:00 2 10km以上 10 71 1010
25 09:30 2 10km以上 9 76 1011
25 09:00 北北西 3 10km以上 9 76 1011
25 08:30 北北西 3 10km以上 8 81 1011
25 08:00 北北西 2 10km以上 8 81 1011
25 07:30 北北西 2 10km以上 8 81 1011
25 07:00 不定 1 10km以上 7 87 1012
25 06:30 北北東 1 10km以上 7 87 1012
25 06:00 1 10km以上 6 93 1012
25 05:30 西北西 2 8,000m 6 93 1012
25 05:00 北西 2 8,000m 6 93 1012
25 04:30 2 10km以上 6 93 1012
25 04:00 2 10km以上 6 93 1012
25 03:30 東南東 1 10km以上 6 93 1012
25 03:00 1 10km以上 6 93 1012
25 02:30 南南東 1 10km以上 6 93 1012
25 02:00 南東 2 10km以上 6 93 1012
25 01:30 南東 2 10km以上 7 87 1013
25 01:00 南東 2 10km以上 7 87 1013
25 00:30 東南東 2 10km以上 7 87 1013
25 00:00 南南東 2 10km以上 8 81 1014
24 23:30 南南東 3 10km以上 8 81 1014
24 23:00 3 10km以上 8 81 1014
24 22:30 南南東 2 10km以上 8 81 1014
24 22:00 南南東 2 10km以上 8 87 1014
24 21:30 東南東 2 10km以上 7 87 1014
24 21:00 2 10km以上 9 76 1015
24 20:30 不定 1 10km以上 9 81 1015
RJCC 261100Z 12004KT CAVOK 09/03 Q1003 RMK A2963
RJCC 261030Z 15003KT 120V210 CAVOK 09/02 Q1003 RMK A2962
RJCC 261000Z 12004KT 100V190 CAVOK 10/03 Q1002 RMK A2961
RJCC 260930Z VRB02KT CAVOK 12/02 Q1002 RMK A2961
RJCC 260900Z 03003KT CAVOK 13/02 Q1002 RMK A2961
RJCC 260830Z 01003KT CAVOK 14/02 Q1002 RMK A2961
RJCC 260800Z 03005KT 350V060 CAVOK 14/02 Q1002 RMK A2960
RJCC 260730Z 01010KT 9999 FEW035 14/02 Q1002 RMK 1CU035 A2960
RJCC 260700Z 01011KT 9999 FEW030 15/03 Q1002 RMK 1CU030 A2960
RJCC 260630Z 01013KT 330V040 9999 FEW030 15/02 Q1002 RMK 1CU030 A2959
RJCC 260600Z 36014KT 320V030 9999 FEW030 16/03 Q1002 RMK 1CU030 A2959
RJCC 260530Z 35014KT 9999 FEW030 17/02 Q1002 RMK 1CU030 A2959
RJCC 260500Z 35016KT 9999 FEW030 SCT/// 17/05 Q1002
RJCC 260430Z 35015KT 9999 FEW030 SCT/// 15/05 Q1002
RJCC 260400Z 36013KT 9999 FEW020 SCT150 14/04 Q1002 RMK 1CU020 3AC150 A2959
RJCC 260330Z 35015KT 310V020 9999 FEW020 BKN100 14/04 Q1002 RMK 1CU020 5AC100 A2959
RJCC 260300Z 35013KT 9999 FEW020 BKN040 BKN080 13/04 Q1002 RMK 1CU020 5CU040 7AC080 A2959
RJCC 260230Z 34016KT 9999 -SHRA FEW020 BKN045 BKN070 12/03 Q1002 RMK 1CU020 5CU045 7AC070 A2959
RJCC 260200Z 33017KT 9999 FEW020 BKN050 BKN070 13/02 Q1002 RMK 1CU020 5CU050 7AC070 A2959
RJCC 260130Z 34009KT 290V020 9999 FEW020 SCT050 BKN070 12/04 Q1002 RMK 1CU020 3CU050 7AC070 A2959
RJCC 260100Z 34008KT 9999 FEW020 SCT060 BKN070 11/05 Q1002 RMK 1CU020 3CU060 7AC070 A2959
RJCC 260030Z 34008KT 9999 FEW020 BKN070 11/05 Q1002 RMK 1CU020 7AC070 A2959
RJCC 260000Z 36008KT 320V020 9999 FEW025 SCT060 BKN070 11/05 Q1002 RMK 1CU025 4CU060 6AC070 A2959
RJCC 252330Z 34008KT 9999 FEW030 SCT060 BKN070 10/05 Q1002 RMK 1CU030 4CU060 6AC070 A2959
RJCC 252300Z 35006KT 9999 FEW030 BKN060 09/05 Q1002 RMK 1CU030 6CU060 A2959
RJCC 252230Z 33005KT 9999 FEW030 BKN050 BKN060 09/05 Q1001 RMK 1CU030 5CU050 7CU060 A2959
RJCC 252200Z 35008KT 9999 -SHRA FEW030 BKN050 BKN060 09/05 Q1001 RMK 1CU030 5CU050 7CU060 A2958
RJCC 252130Z 35008KT 9999 FEW030 BKN060 08/05 Q1001 RMK 1CU030 7CU060 A2958
RJCC 252100Z 35008KT 9999 FEW025 SCT050 BKN070 08/05 Q1001 RMK 1CU025 3CU050 6AC070 A2957
RJCC 252030Z 36009KT 9999 FEW025 SCT070 BKN120 08/04 Q1001 RMK 1CU025 4AC070 7AC120 A2957
RJCC 252000Z 36010KT 9999 FEW020 SCT100 BKN120 07/04 Q1001 RMK 1CU020 3AC100 7AC120 A2956
RJCC 251930Z 36010KT 9999 FEW018 BKN070 BKN120 07/04 Q1001 RMK 1ST018 5AC070 7AC120 A2956
RJCC 251900Z 36010KT 9999 FEW015 SCT080 BKN100 08/05 Q1001 RMK 1ST015 4AC080 7AC100 A2956
RJCC 251830Z 35010KT 9999 FEW015 SCT070 BKN100 07/05 Q1001 RMK 1ST015 4AC070 7AC100 A2956
RJCC 251800Z 35009KT 9999 FEW015 BKN070 BKN100 07/05 Q1001 RMK 1ST015 6AC070 7AC100 A2956
RJCC 251730Z 36007KT 9999 -SHRA FEW015 BKN070 BKN100 07/05 Q1001 RMK 1ST015 6AC070 7AC100 A2956
RJCC 251700Z 34008KT 9999 -SHRA FEW015 BKN070 BKN100 08/05 Q1001 RMK 1ST015 6AC070 7AC100 A2957
RJCC 251630Z 34008KT 9999 FEW015 BKN070 BKN100 08/05 Q1001 RMK 1ST015 5AC070 6AC100 A2957
RJCC 251600Z 34009KT 9999 FEW015 BKN070 BKN100 08/06 Q1001 RMK 1ST015 6AC070 7AC100 A2958
RJCC 251530Z 35007KT 9999 -SHRA FEW015 BKN080 08/06 Q1002 RMK 1ST015 7AC080 A2959
RJCC 251500Z 34009KT 9999 -SHRA FEW015 BKN070 BKN090 08/06 Q1002 RMK 1ST015 6AC070 7AC090 A2961
RJCC 251430Z 34008KT 9999 -SHRA FEW015 BKN070 BKN090 08/06 Q1002 RMK 1ST015 5AC070 7AC090 A2961
RJCC 251400Z 34010KT 9999 -SHRA FEW015 BKN070 BKN090 08/06 Q1003 RMK 1ST015 6AC070 7AC090 A2962
RJCC 251330Z 34011KT 9999 -SHRA FEW015 BKN070 BKN090 08/05 Q1003 RMK 1ST015 6AC070 7AC090 A2963
RJCC 251300Z 33011KT 9999 -SHRA FEW015 BKN070 09/06 Q1003 RMK 1ST015 7AC070 A2964
RJCC 251230Z 34010KT 9999 -SHRA FEW015 BKN070 08/06 Q1004 RMK 1ST015 7AC070 A2965
RJCC 251200Z 34011KT 9999 -SHRA FEW015 BKN070 08/06 Q1004 RMK 1ST015 7AC070 A2966
RJCC 251130Z 34011KT 9999 -SHRA FEW015 SCT060 BKN070 08/06 Q1004 RMK 1ST015 3CU060 7AC070 A2967
RJCC 251100Z 33010KT 9999 -SHRA FEW015 BKN070 09/07 Q1004 RMK 1ST015 7AC070 A2967
RJCC 251030Z 34008KT 310V010 9999 -SHRA FEW015 BKN070 09/07 Q1005 RMK 1ST015 7AC070 A2968
RJCC 251000Z 35007KT 9999 -SHRA FEW015 BKN070 08/07 Q1005 RMK 1ST015 7AC070 A2968
RJCC 250930Z 35005KT 9999 -SHRA FEW015 BKN070 08/06 Q1005 RMK 1ST015 7AC070 A2969
RJCC 250900Z 35008KT 9999 -SHRA FEW015 BKN070 09/07 Q1005 RMK 1ST015 7AC070 A2969
RJCC 250830Z 36009KT 9999 -SHRA FEW015 BKN070 09/07 Q1005 RMK 1ST015 7AC070 A2970
RJCC 250800Z 35008KT 9999 -SHRA FEW015 BKN080 09/08 Q1005 RMK 1ST015 7AC080 A2970
RJCC 250730Z 36004KT 9999 -SHRA FEW015 SCT030 BKN080 09/08 Q1006 RMK 1ST015 3CU030 7AC080 A2972
RJCC 250700Z 36007KT 9999 SHRA FEW015 BKN050 09/07 Q1006 RMK 1ST015 7CU050 A2973
RJCC 250630Z 36009KT 9999 -SHRA FEW015 BKN060 09/07 Q1006
RJCC 250600Z 36010KT 9999 -SHRA FEW015 BKN060 09/07 Q1006
RJCC 250530Z 02010KT 8000 -SHRA FEW015 BKN060 09/07 Q1007
RJCC 250500Z 01009KT 8000 -SHRA FEW015 BKN060 10/07 Q1007
RJCC 250430Z 36009KT 8000 -SHRA FEW015 BKN060 10/07 Q1008
RJCC 250400Z 35009KT 8000 -SHRA FEW015 BKN060 10/06 Q1008
RJCC 250330Z 34007KT 9999 -SHRA FEW020 BKN060 10/06 Q1009
RJCC 250300Z 33007KT 9999 -SHRA FEW020 BKN060 11/04 Q1009
RJCC 250230Z 34007KT 9999 FEW040 SCT060 BKN070 12/03 Q1009
RJCC 250200Z 36006KT 9999 FEW040 BKN080 12/04 Q1009 RMK 1CU040 7AC080 A2982
RJCC 250130Z 35005KT 310V010 9999 FEW040 BKN090 11/04 Q1010
RJCC 250100Z 36004KT 320V040 9999 FEW040 BKN080 10/05 Q1010 RMK 1CU040 7AC080 A2985
RJCC 250030Z 36004KT 9999 FEW040 BKN080 09/05 Q1011 RMK 1SC040 7AC080 A2986
RJCC 250000Z 34005KT 9999 FEW040 BKN090 09/05 Q1011 RMK 1SC040 7AC090 A2987
RJCC 242330Z 33005KT 9999 FEW040 BKN090 08/05 Q1011 RMK 1SC040 7AC090 A2987
RJCC 242300Z 33004KT 280V350 9999 FEW030 BKN090 08/05 Q1011
RJCC 242230Z 33004KT 9999 FEW030 BKN090 08/05 Q1011 RMK 1CU030 7AC090 A2988
RJCC 242200Z VRB02KT 9999 FEW030 BKN100 07/05 Q1012 RMK 1CU030 7AC100 A2989
RJCC 242130Z 02001KT 9999 FEW030 BKN100 07/05 Q1012 RMK 1CU030 7AC100 A2989
RJCC 242100Z 01002KT 9999 FEW040 BKN110 06/05 Q1012 RMK 1CU040 7AC110 A2990
RJCC 242030Z 30003KT 8000 FEW005 BKN110 06/05 Q1012 RMK 1ST005 7AC110 A2990
RJCC 242000Z 32003KT 8000 FEW005 BKN120 06/05 Q1012 RMK 1ST005 7AC120 A2989
RJCC 241930Z 35003KT 9999 FEW010 BKN120 06/05 Q1012 RMK 1ST010 7AC120 A2988
RJCC 241900Z 01003KT 9999 FEW010 BKN120 06/05 Q1012 RMK 1ST010 7AC120 A2988
RJCC 241830Z 12001KT 9999 FEW010 BKN120 06/05 Q1012 RMK 1ST010 7AC120 A2990
RJCC 241800Z 10001KT 9999 FEW010 BKN120 06/05 Q1012 RMK 1ST010 7AC120 A2990
RJCC 241730Z 16001KT 9999 FEW010 BKN120 06/05 Q1012 RMK 1ST010 7AC120 A2991
RJCC 241700Z 13003KT 9999 FEW010 BKN140 06/05 Q1012 RMK 1ST010 7AC140 A2990
RJCC 241630Z 14003KT 9999 FEW010 BKN140 07/05 Q1013 RMK 1ST010 7AC140 A2991
RJCC 241600Z 13003KT 9999 FEW010 BKN140 07/05 Q1013 RMK 1ST010 7AC140 A2992
RJCC 241530Z 11003KT 9999 FEW010 SCT090 BKN150 07/05 Q1013 RMK 1ST010 3AC090 7AC150 A2994
RJCC 241500Z 15003KT 9999 FEW010 BKN090 08/05 Q1014 RMK 1ST010 7AC090 A2995
RJCC 241430Z 16005KT 9999 FEW010 BKN090 08/05 Q1014 RMK 1ST010 7AC090 A2996
RJCC 241400Z 17005KT 9999 FEW010 BKN090 08/05 Q1014 RMK 1ST010 7AC090 A2996
RJCC 241330Z 16004KT 9999 FEW010 BKN080 08/05 Q1014 RMK 1ST010 7AC080 A2996
RJCC 241300Z 15003KT 110V190 9999 FEW010 BKN080 08/06 Q1014 RMK 1ST010 7AC080 A2996
RJCC 241230Z 11003KT 9999 FEW010 BKN080 07/05 Q1014 RMK 1ST010 7AC080 A2997
RJCC 241200Z 18003KT 160V240 9999 FEW010 BKN090 09/05 Q1015 RMK 1ST010 7AC090 A2997
RJCC 241130Z VRB02KT 9999 FEW010 BKN080 09/06 Q1015 RMK 1ST010 7AC080 A2998